Miami, FL - MIA

South Beach Bringing the Heat

The Miami International Airport is American Airlines' gateway to the Caribbean and South America and is a key connection point to the rest of the AAG route network. American Airlines boasts an impressive 75% of the passenger share out of Miami which equated to more than 34 million passengers alone in 2019.

MIA Based Pilots: 33   Miles to MIA: 368409
Flights from MIA: 473   Total Hours: 1999.97
Routes using MIA: 1381   From MIA: 1041.81
Total Miles: 772381   Hours To MIA: 958.16
Miles from MIA: 403972   MIA Charts: Click Here
VATSIM METAR: KMIA 042153Z 06009KT 10SM BKN055 BKN070 28/19 A2990 RMK AO2 SLP127 T02780194
 
         
View More: Click Here
   

 

Like what you see and ready to join the team?

A rewarding and memorable virtual airline experience awaits!